Terminal Aerodrome Forecast
Issued by NWS

Current Version | Previous Version | Text Only | Print | Product List | Glossary On
Versions: 1 2 3 4 5 6 7 8 9 10 11 12 13 14
000
FTUS42 TJSJ 281137
TAFISX
TAF
TISX 281137Z 2812/2912 07008KT P6SM SKC
     FM281300 10014G24KT P6SM VCSH SCT025 SCT035 SCT060
     FM282300 07008KT P6SM VCSH FEW025 SCT040=

USA.gov is the U.S. government's official web portal to all federal, state and local government web resources and services.